createdAt,value
2023-03-22T00:01:19.859Z,32.50
2023-03-22T00:03:48.139Z,30.75
2023-03-22T00:06:16.541Z,32.00
2023-03-22T00:08:44.284Z,33.00
2023-03-22T00:11:12.419Z,28.50
2023-03-22T00:13:39.461Z,30.25
2023-03-22T00:16:06.900Z,30.50
2023-03-22T00:18:33.684Z,33.75
2023-03-22T00:21:01.075Z,34.50
2023-03-22T00:23:29.129Z,33.00
2023-03-22T00:25:56.605Z,31.00
2023-03-22T00:28:24.376Z,33.00
2023-03-22T00:30:57.343Z,33.25
2023-03-22T00:33:28.209Z,32.00
2023-03-22T00:35:58.422Z,31.00
2023-03-22T00:38:41.157Z,34.50
2023-03-22T00:41:23.126Z,34.25
2023-03-22T00:43:51.166Z,28.50
2023-03-22T00:46:20.461Z,28.75
2023-03-22T00:48:47.898Z,28.50
2023-03-22T00:51:15.636Z,30.00
2023-03-22T00:53:43.829Z,27.75
2023-03-22T00:56:15.878Z,28.25
2023-03-22T00:58:56.078Z,30.00
2023-03-22T01:01:23.268Z,27.25
2023-03-22T01:03:50.919Z,30.50
2023-03-22T01:06:18.499Z,31.75
2023-03-22T01:08:45.753Z,32.00
2023-03-22T01:11:12.914Z,31.00
2023-03-22T01:13:41.753Z,32.00
2023-03-22T01:16:10.019Z,29.25
2023-03-22T01:18:37.586Z,31.50
2023-03-22T01:21:05.229Z,28.25
2023-03-22T01:23:32.328Z,31.50
2023-03-22T01:25:59.382Z,36.50
2023-03-22T01:28:27.303Z,34.50
2023-03-22T01:30:55.214Z,29.25
2023-03-22T01:33:22.281Z,25.75
2023-03-22T01:35:49.634Z,25.50
2023-03-22T01:38:16.910Z,32.00
2023-03-22T01:40:52.396Z,30.75
2023-03-22T01:43:19.808Z,39.00
2023-03-22T01:45:49.452Z,29.00
2023-03-22T01:48:34.908Z,28.50
2023-03-22T01:51:10.544Z,27.00
2023-03-22T01:54:00.459Z,26.75
2023-03-22T01:56:31.606Z,27.25
2023-03-22T01:58:59.182Z,27.75
2023-03-22T02:01:35.135Z,26.25
2023-03-22T02:04:13.032Z,32.00
2023-03-22T02:06:40.224Z,31.50
2023-03-22T02:09:17.491Z,31.00
2023-03-22T02:11:50.737Z,31.00
2023-03-22T02:15:07.304Z,29.00
2023-03-22T02:18:06.528Z,30.25
2023-03-22T02:20:47.131Z,27.25
2023-03-22T02:23:14.045Z,30.00
2023-03-22T02:26:41.569Z,30.75
2023-03-22T02:29:31.084Z,29.50
2023-03-22T02:32:23.047Z,27.50
2023-03-22T02:35:08.007Z,32.00
2023-03-22T02:38:05.511Z,31.50
2023-03-22T02:40:56.636Z,30.25
2023-03-22T02:43:46.243Z,23.00
2023-03-22T02:46:30.844Z,32.25
2023-03-22T02:49:16.283Z,30.00
2023-03-22T02:52:06.393Z,29.25
2023-03-22T02:54:44.596Z,27.75
2023-03-22T02:57:20.414Z,25.25
2023-03-22T02:59:48.728Z,24.50
2023-03-22T03:02:18.505Z,35.25
2023-03-22T03:04:49.822Z,31.75
2023-03-22T03:07:22.040Z,27.00
2023-03-22T03:09:51.228Z,25.50
2023-03-22T03:12:21.846Z,34.00
2023-03-22T03:14:48.756Z,26.75
2023-03-22T03:17:24.420Z,29.50
2023-03-22T03:20:19.890Z,29.50
2023-03-22T03:23:14.544Z,28.00
2023-03-22T03:25:50.567Z,28.50
2023-03-22T03:28:30.589Z,29.25
2023-03-22T03:31:04.033Z,29.00
2023-03-22T03:33:35.044Z,28.00
2023-03-22T03:36:11.387Z,27.00
2023-03-22T03:38:45.320Z,31.25
2023-03-22T03:41:16.468Z,30.25
2023-03-22T03:43:45.772Z,32.25
2023-03-22T03:46:13.407Z,30.00
2023-03-22T03:48:43.953Z,24.00
2023-03-22T03:51:10.900Z,22.50
2023-03-22T03:53:37.738Z,24.50
2023-03-22T03:56:05.086Z,26.50
2023-03-22T03:58:37.936Z,25.25
2023-03-22T04:01:05.406Z,34.00
2023-03-22T04:03:55.445Z,30.50
2023-03-22T04:06:40.939Z,28.00
2023-03-22T04:09:12.177Z,28.00
2023-03-22T04:11:43.779Z,28.50
2023-03-22T04:14:11.428Z,26.25
2023-03-22T04:16:38.574Z,26.50
2023-03-22T04:19:08.492Z,30.00
2023-03-22T04:21:35.436Z,25.25
2023-03-22T04:24:03.152Z,27.00
2023-03-22T04:26:35.552Z,28.00
2023-03-22T04:29:13.948Z,27.50
2023-03-22T04:31:44.993Z,31.25
2023-03-22T04:34:18.955Z,29.75
2023-03-22T04:37:02.673Z,28.25
2023-03-22T04:39:53.080Z,24.50
2023-03-22T04:42:39.436Z,26.00
2023-03-22T04:45:16.889Z,27.50
2023-03-22T04:47:48.419Z,30.50
2023-03-22T04:50:15.882Z,30.00
2023-03-22T04:52:50.435Z,28.00
2023-03-22T04:55:17.695Z,30.50
2023-03-22T04:57:45.620Z,30.75
2023-03-22T05:00:12.991Z,31.75
2023-03-22T05:02:41.518Z,31.00
2023-03-22T05:05:15.346Z,31.25
2023-03-22T05:07:43.817Z,30.00
2023-03-22T05:10:11.156Z,30.25
2023-03-22T05:12:38.634Z,28.50
2023-03-22T05:15:22.079Z,27.50
2023-03-22T05:17:51.023Z,31.25
2023-03-22T05:20:18.305Z,30.50
2023-03-22T05:22:51.196Z,29.50
2023-03-22T05:25:19.805Z,29.00
2023-03-22T05:27:47.313Z,29.00
2023-03-22T05:30:37.419Z,28.75
2023-03-22T05:33:22.823Z,27.25
2023-03-22T05:35:53.559Z,30.00
2023-03-22T05:38:22.862Z,29.25
2023-03-22T05:40:52.517Z,27.25
2023-03-22T05:43:19.865Z,33.00
2023-03-22T05:45:49.610Z,29.75
2023-03-22T05:48:37.938Z,34.00
2023-03-22T05:51:17.758Z,30.75
2023-03-22T05:53:48.661Z,29.00
2023-03-22T05:56:21.902Z,30.00
2023-03-22T05:58:50.072Z,31.00
2023-03-22T06:01:20.565Z,29.50
2023-03-22T06:03:48.662Z,34.00
2023-03-22T06:06:24.035Z,32.50
2023-03-22T06:09:16.334Z,34.00
2023-03-22T06:11:46.382Z,33.00
2023-03-22T06:14:15.113Z,39.00
2023-03-22T06:17:05.206Z,37.00
2023-03-22T06:19:32.287Z,34.00
2023-03-22T06:22:02.041Z,28.25
2023-03-22T06:24:29.007Z,36.25
2023-03-22T06:26:55.946Z,36.50
2023-03-22T06:29:22.813Z,35.50
2023-03-22T06:31:52.762Z,33.25
2023-03-22T06:34:19.610Z,30.25
2023-03-22T06:36:47.569Z,28.25
2023-03-22T06:39:22.262Z,28.00
2023-03-22T06:41:49.493Z,34.75
2023-03-22T06:44:16.971Z,46.75
2023-03-22T06:46:52.628Z,30.50
2023-03-22T06:49:39.691Z,35.50
2023-03-22T06:52:06.692Z,27.75
2023-03-22T06:54:34.786Z,27.33
2023-03-22T06:57:01.690Z,22.67
2023-03-22T06:59:28.639Z,22.00
2023-03-22T07:01:55.890Z,22.33
2023-03-22T07:04:22.893Z,25.33
2023-03-22T07:06:50.683Z,24.00
2023-03-22T07:09:18.086Z,16.00
2023-03-22T07:11:47.275Z,22.67
2023-03-22T07:14:15.268Z,20.00
2023-03-22T07:17:02.418Z,21.33
2023-03-22T07:19:31.893Z,24.33
2023-03-22T07:22:02.134Z,22.33
2023-03-22T07:24:28.994Z,26.33
2023-03-22T07:26:56.269Z,25.67
2023-03-22T07:29:26.991Z,28.33
2023-03-22T07:31:54.369Z,29.75
2023-03-22T07:34:24.788Z,25.33
2023-03-22T07:37:03.164Z,28.75
2023-03-22T07:39:31.249Z,30.00
2023-03-22T07:41:58.552Z,28.00
2023-03-22T07:44:26.075Z,31.50
2023-03-22T07:47:11.160Z,32.25
2023-03-22T07:49:54.915Z,29.25
2023-03-22T07:52:26.336Z,32.25
2023-03-22T07:54:53.861Z,32.50
2023-03-22T07:57:20.826Z,34.25
2023-03-22T07:59:54.067Z,30.75
2023-03-22T08:02:21.173Z,31.00
2023-03-22T08:04:56.165Z,33.00
2023-03-22T08:07:36.308Z,34.00
2023-03-22T08:10:04.899Z,30.50
2023-03-22T08:12:32.629Z,32.00
2023-03-22T08:15:08.865Z,31.00
2023-03-22T08:17:36.100Z,20.00
2023-03-22T08:20:09.049Z,24.00
2023-03-22T08:22:45.846Z,20.67
2023-03-22T08:25:18.957Z,22.33
2023-03-22T08:27:45.971Z,23.00
2023-03-22T08:30:13.597Z,26.00
2023-03-22T08:32:41.136Z,26.00
2023-03-22T08:35:08.901Z,24.00
2023-03-22T08:37:35.783Z,23.00
2023-03-22T08:40:07.922Z,21.33
2023-03-22T08:42:38.836Z,22.33
2023-03-22T08:45:06.748Z,22.33
2023-03-22T08:47:36.114Z,23.67
2023-03-22T08:50:04.429Z,24.67
2023-03-22T08:52:40.441Z,15.00
2023-03-22T08:55:14.357Z,12.33
2023-03-22T08:57:50.295Z,10.67
2023-03-22T09:00:39.118Z,8.00
2023-03-22T09:03:42.122Z,16.00
2023-03-22T09:06:10.607Z,15.00
2023-03-22T09:08:39.892Z,15.67
2023-03-22T09:11:15.252Z,12.25
2023-03-22T09:13:43.441Z,8.75
2023-03-22T09:16:10.942Z,10.00
2023-03-22T09:18:39.996Z,5.25
2023-03-22T09:21:13.118Z,10.00
2023-03-22T09:23:50.544Z,10.25
2023-03-22T09:26:22.771Z,8.25
2023-03-22T09:28:51.868Z,2.00
2023-03-22T09:31:20.521Z,9.00
2023-03-22T09:33:52.346Z,4.00
2023-03-22T09:36:19.931Z,5.00
2023-03-22T09:38:50.012Z,4.00
2023-03-22T09:41:31.024Z,9.00
2023-03-22T09:44:05.532Z,10.50
2023-03-22T09:46:37.424Z,8.00
2023-03-22T09:49:17.128Z,8.67
2023-03-22T09:51:46.757Z,9.67
2023-03-22T09:54:21.575Z,9.25
2023-03-22T09:57:00.987Z,11.33
2023-03-22T09:59:33.606Z,11.33
2023-03-22T10:02:05.134Z,12.00
2023-03-22T10:05:04.524Z,5.67
2023-03-22T10:07:53.512Z,12.33
2023-03-22T10:10:24.197Z,10.00
2023-03-22T10:13:36.212Z,13.00
2023-03-22T10:16:06.559Z,9.00
2023-03-22T10:18:37.964Z,10.00
2023-03-22T10:21:05.009Z,8.33
2023-03-22T10:23:48.414Z,10.33
2023-03-22T10:26:48.138Z,11.33
2023-03-22T10:29:40.603Z,11.33
2023-03-22T10:32:26.402Z,11.00
2023-03-22T10:34:53.332Z,9.00
2023-03-22T10:37:24.959Z,8.25
2023-03-22T10:39:57.964Z,5.50
2023-03-22T10:42:28.021Z,7.50
2023-03-22T10:45:14.984Z,9.00
2023-03-22T10:47:58.003Z,10.75
2023-03-22T10:50:29.771Z,11.00
2023-03-22T10:52:59.548Z,9.75
2023-03-22T10:55:26.482Z,9.75
2023-03-22T10:58:17.286Z,9.25
2023-03-22T11:00:55.997Z,12.00
2023-03-22T11:03:42.904Z,7.50
2023-03-22T11:06:13.519Z,7.25
2023-03-22T11:08:58.924Z,8.25
2023-03-22T11:11:30.530Z,4.75
2023-03-22T11:14:02.924Z,8.00
2023-03-22T11:16:31.503Z,6.00
2023-03-22T11:19:01.927Z,8.00
2023-03-22T11:21:32.431Z,5.75
2023-03-22T11:24:07.416Z,8.00
2023-03-22T11:26:40.549Z,6.75
2023-03-22T11:29:12.604Z,8.25
2023-03-22T11:31:59.744Z,9.75
2023-03-22T11:34:29.835Z,8.75
2023-03-22T11:37:01.013Z,8.75
2023-03-22T11:39:29.676Z,4.50
2023-03-22T11:42:00.276Z,6.00
2023-03-22T11:44:29.121Z,4.75
2023-03-22T11:47:00.776Z,4.00
2023-03-22T11:49:42.734Z,8.00
2023-03-22T11:52:38.857Z,6.25
2023-03-22T11:55:06.730Z,5.50
2023-03-22T11:57:34.629Z,5.75
2023-03-22T12:00:13.397Z,5.25
2023-03-22T12:02:49.239Z,3.75
2023-03-22T12:05:24.567Z,6.00
2023-03-22T12:08:06.920Z,8.25
2023-03-22T12:10:40.944Z,6.00
2023-03-22T12:13:21.419Z,11.00
2023-03-22T12:16:02.152Z,3.50
2023-03-22T12:18:41.461Z,4.25
2023-03-22T12:21:10.508Z,6.00
2023-03-22T12:23:38.462Z,6.00
2023-03-22T12:26:40.492Z,5.50
2023-03-22T12:29:18.314Z,5.00
2023-03-22T12:31:59.384Z,3.75
2023-03-22T12:34:35.926Z,11.25
2023-03-22T12:37:06.670Z,8.25
2023-03-22T12:39:46.226Z,8.00
2023-03-22T12:42:26.164Z,7.75
2023-03-22T12:45:05.013Z,5.00
2023-03-22T12:47:41.876Z,8.75
2023-03-22T12:50:19.582Z,8.75
2023-03-22T12:52:55.427Z,9.25
2023-03-22T12:55:29.143Z,8.00
2023-03-22T12:57:56.888Z,5.00
2023-03-22T13:00:36.578Z,5.25
2023-03-22T13:03:17.557Z,2.75
2023-03-22T13:05:46.716Z,6.25
2023-03-22T13:08:19.247Z,5.00
2023-03-22T13:11:01.889Z,8.00
2023-03-22T13:13:28.717Z,4.00
2023-03-22T13:16:01.446Z,13.33
2023-03-22T13:18:58.190Z,6.00
2023-03-22T13:21:31.702Z,4.00
2023-03-22T13:24:15.455Z,5.00
2023-03-22T13:26:49.266Z,2.50
2023-03-22T13:29:18.611Z,5.00
2023-03-22T13:31:55.084Z,7.75
2023-03-22T13:34:38.378Z,10.00
2023-03-22T13:37:31.821Z,3.00
2023-03-22T13:40:02.308Z,8.00
2023-03-22T13:42:38.021Z,5.50
2023-03-22T13:45:09.448Z,9.25
2023-03-22T13:47:37.724Z,5.75
2023-03-22T13:50:28.427Z,4.00
2023-03-22T13:53:15.768Z,9.00
2023-03-22T13:55:57.880Z,8.00
2023-03-22T13:58:36.164Z,6.00
2023-03-22T14:01:07.080Z,6.00
2023-03-22T14:03:42.451Z,7.25
2023-03-22T14:06:23.730Z,8.25
2023-03-22T14:08:56.178Z,8.25
2023-03-22T14:11:28.837Z,7.25
2023-03-22T14:14:04.007Z,10.25
2023-03-22T14:16:50.815Z,10.50
2023-03-22T14:19:22.231Z,10.50
